createdAt,value
2019-02-22T00:00:19.256Z,18.35
2019-02-22T00:01:19.107Z,18.35
2019-02-22T00:02:19.282Z,18.35
2019-02-22T00:03:19.347Z,18.33
2019-02-22T00:04:19.244Z,18.34
2019-02-22T00:05:20.801Z,18.33
2019-02-22T00:06:19.365Z,18.33
2019-02-22T00:07:18.803Z,18.32
2019-02-22T00:08:20.820Z,18.32
2019-02-22T00:09:20.920Z,18.31
2019-02-22T00:10:19.017Z,18.31
2019-02-22T00:11:19.066Z,18.31
2019-02-22T00:12:19.556Z,18.3
2019-02-22T00:13:20.849Z,18.3
2019-02-22T00:14:18.803Z,18.3
2019-02-22T00:15:18.739Z,18.29
2019-02-22T00:16:19.461Z,18.29
2019-02-22T00:17:19.685Z,18.29
2019-02-22T00:18:19.092Z,18.28
2019-02-22T00:19:19.009Z,18.27
2019-02-22T00:20:19.097Z,18.28
2019-02-22T00:21:20.662Z,18.28
2019-02-22T00:22:19.272Z,18.26
2019-02-22T00:23:19.453Z,18.26
2019-02-22T00:24:18.951Z,18.26
2019-02-22T00:25:19.118Z,18.25
2019-02-22T00:26:18.985Z,18.25
2019-02-22T00:27:19.115Z,18.25
2019-02-22T00:28:19.386Z,18.24
2019-02-22T00:29:19.142Z,18.23
2019-02-22T00:30:21.825Z,18.23
2019-02-22T00:31:19.278Z,18.23
2019-02-22T00:32:18.877Z,18.22
2019-02-22T00:33:19.113Z,18.22
2019-02-22T00:34:20.329Z,18.21
2019-02-22T00:35:20.444Z,18.21
2019-02-22T00:36:19.808Z,18.2
2019-02-22T00:37:19.891Z,18.2
2019-02-22T00:38:19.114Z,18.2
2019-02-22T00:41:19.420Z,18.18
2019-02-22T00:42:18.826Z,18.18
2019-02-22T00:43:19.009Z,18.18
2019-02-22T00:44:19.199Z,18.17
2019-02-22T00:45:19.663Z,18.17
2019-02-22T00:46:19.257Z,18.17
2019-02-22T00:47:19.349Z,18.17
2019-02-22T00:48:18.793Z,18.17
2019-02-22T00:49:18.922Z,18.16
2019-02-22T00:50:18.790Z,18.16
2019-02-22T00:51:19.869Z,18.15
2019-02-22T00:52:19.394Z,18.16
2019-02-22T00:53:18.937Z,18.15
2019-02-22T00:54:19.018Z,18.15
2019-02-22T00:55:19.080Z,18.14
2019-02-22T00:56:19.836Z,18.14
2019-02-22T00:57:19.651Z,18.14
2019-02-22T00:58:19.351Z,18.13
2019-02-22T00:59:18.817Z,18.13
2019-02-22T01:00:19.140Z,18.12
2019-02-22T01:01:19.111Z,18.12
2019-02-22T01:02:19.385Z,18.12
2019-02-22T01:03:19.180Z,18.11
2019-02-22T01:04:19.176Z,18.11
2019-02-22T01:05:18.994Z,18.1
2019-02-22T01:06:19.283Z,18.1
2019-02-22T01:07:19.104Z,18.1
2019-02-22T01:08:18.972Z,18.1
2019-02-22T01:09:19.113Z,18.1
2019-02-22T01:10:18.912Z,18.1
2019-02-22T01:11:19.545Z,18.1
2019-02-22T01:12:19.119Z,18.1
2019-02-22T01:13:18.849Z,18.1
2019-02-22T01:14:19.398Z,18.09
2019-02-22T01:15:19.380Z,18.09
2019-02-22T01:16:18.947Z,18.08
2019-02-22T01:17:18.898Z,18.09
2019-02-22T01:18:18.963Z,18.08
2019-02-22T01:19:20.432Z,18.08
2019-02-22T01:20:19.065Z,18.07
2019-02-22T01:21:19.361Z,18.07
2019-02-22T01:22:19.205Z,18.07
2019-02-22T01:23:19.474Z,18.07
2019-02-22T01:24:19.057Z,18.07
2019-02-22T01:25:18.937Z,18.06
2019-02-22T01:26:20.866Z,18.06
2019-02-22T01:27:18.766Z,18.06
2019-02-22T01:28:19.681Z,18.05
2019-02-22T01:29:19.028Z,18.05
2019-02-22T01:30:19.089Z,18.04
2019-02-22T01:31:19.141Z,18.04
2019-02-22T01:32:19.111Z,18.04
2019-02-22T01:33:18.915Z,18.04
2019-02-22T01:34:20.889Z,18.04
2019-02-22T01:35:18.961Z,18.03
2019-02-22T01:36:19.116Z,18.02
2019-02-22T01:37:18.884Z,18.03
2019-02-22T01:38:18.754Z,18.02
2019-02-22T01:39:18.776Z,18.01
2019-02-22T01:40:18.950Z,18.02
2019-02-22T01:41:18.776Z,18.01
2019-02-22T01:42:18.847Z,18.01
2019-02-22T01:43:19.071Z,18.01
2019-02-22T01:44:20.271Z,18.01
2019-02-22T01:45:19.283Z,18
2019-02-22T01:46:18.919Z,17.99
2019-02-22T01:47:19.281Z,18
2019-02-22T01:48:19.093Z,17.99
2019-02-22T01:49:19.257Z,17.99
2019-02-22T01:50:19.229Z,17.99
2019-02-22T01:51:19.254Z,17.99
2019-02-22T01:52:19.120Z,17.98
2019-02-22T01:53:19.364Z,17.99
2019-02-22T01:54:19.755Z,17.98
2019-02-22T01:55:19.139Z,17.98
2019-02-22T01:56:18.922Z,17.98
2019-02-22T01:57:18.735Z,17.98
2019-02-22T01:58:18.804Z,17.97
2019-02-22T01:59:18.911Z,17.97
2019-02-22T02:00:20.815Z,17.97
2019-02-22T02:01:19.229Z,17.97
2019-02-22T02:02:18.695Z,17.97
2019-02-22T02:03:19.091Z,17.96
2019-02-22T02:04:18.876Z,17.96
2019-02-22T02:05:18.806Z,17.95
2019-02-22T02:06:19.232Z,17.95
2019-02-22T02:07:18.805Z,17.95
2019-02-22T02:08:18.893Z,17.95
2019-02-22T02:09:19.192Z,17.94
2019-02-22T02:10:18.782Z,17.94
2019-02-22T02:11:18.958Z,17.94
2019-02-22T02:12:19.057Z,17.94
2019-02-22T02:13:19.047Z,17.92
2019-02-22T02:14:19.285Z,17.93
2019-02-22T02:15:19.106Z,17.93
2019-02-22T02:16:19.041Z,17.92
2019-02-22T02:17:19.187Z,17.93
2019-02-22T02:18:19.721Z,17.92
2019-02-22T02:19:18.840Z,17.92
2019-02-22T02:20:20.125Z,17.92
2019-02-22T02:21:19.208Z,17.92
2019-02-22T02:22:19.464Z,17.92
2019-02-22T02:23:20.867Z,17.92
2019-02-22T02:24:18.875Z,17.91
2019-02-22T02:25:19.769Z,17.92
2019-02-22T02:26:19.976Z,17.91
2019-02-22T02:27:18.683Z,17.91
2019-02-22T02:28:19.822Z,17.91
2019-02-22T02:29:19.182Z,17.91
2019-02-22T02:30:19.326Z,17.9
2019-02-22T02:31:19.157Z,17.9
2019-02-22T02:32:19.316Z,17.89
2019-02-22T02:33:19.345Z,17.89
2019-02-22T02:34:20.870Z,17.89
2019-02-22T02:35:18.881Z,17.9
2019-02-22T02:36:19.140Z,17.89
2019-02-22T02:37:19.348Z,17.89
2019-02-22T02:38:21.011Z,17.88
2019-02-22T02:39:18.984Z,17.88
2019-02-22T02:40:19.590Z,17.89
2019-02-22T02:41:19.203Z,17.88
2019-02-22T02:42:19.126Z,17.88
2019-02-22T02:43:19.220Z,17.88
2019-02-22T02:44:18.994Z,17.87
2019-02-22T02:45:19.511Z,17.87
2019-02-22T02:46:19.496Z,17.87
2019-02-22T02:47:19.970Z,17.86
2019-02-22T02:48:19.968Z,17.86
2019-02-22T02:49:19.038Z,17.86
2019-02-22T02:50:19.006Z,17.86
2019-02-22T02:51:19.928Z,17.86
2019-02-22T02:52:19.647Z,17.86
2019-02-22T02:53:19.231Z,17.87
2019-02-22T02:54:19.457Z,17.86
2019-02-22T02:55:19.284Z,17.86
2019-02-22T02:56:20.839Z,17.85
2019-02-22T02:57:19.560Z,17.85
2019-02-22T02:58:19.211Z,17.85
2019-02-22T02:59:19.496Z,17.86
2019-02-22T03:00:18.969Z,17.85
2019-02-22T03:01:19.108Z,17.85
2019-02-22T03:02:19.208Z,17.84
2019-02-22T03:03:19.432Z,17.84
2019-02-22T03:04:20.704Z,17.83
2019-02-22T03:05:18.999Z,17.83
2019-02-22T03:06:18.845Z,17.83
2019-02-22T03:07:20.747Z,17.82
2019-02-22T03:08:19.674Z,17.82
2019-02-22T03:09:19.044Z,17.82
2019-02-22T03:10:19.115Z,17.82
2019-02-22T03:11:21.618Z,17.81
2019-02-22T03:12:19.150Z,17.81
2019-02-22T03:13:18.803Z,17.81
2019-02-22T03:14:19.379Z,17.8
2019-02-22T03:15:19.821Z,17.8
2019-02-22T03:16:19.047Z,17.79
2019-02-22T03:17:19.162Z,17.8
2019-02-22T03:18:19.010Z,17.81
2019-02-22T03:19:19.211Z,17.81
2019-02-22T03:20:20.743Z,17.8
2019-02-22T03:21:19.139Z,17.79
2019-02-22T03:22:19.873Z,17.79
2019-02-22T03:23:19.464Z,17.8
2019-02-22T03:24:19.357Z,17.79
2019-02-22T03:25:19.118Z,17.79
2019-02-22T03:26:19.081Z,17.79
2019-02-22T03:27:19.231Z,17.79
2019-02-22T03:28:19.077Z,17.79
2019-02-22T03:29:18.995Z,17.79
2019-02-22T03:30:20.002Z,17.79
2019-02-22T03:31:19.793Z,17.79
2019-02-22T03:32:18.864Z,17.78
2019-02-22T03:33:19.053Z,17.78
2019-02-22T03:34:20.081Z,17.78
2019-02-22T03:35:19.114Z,17.77
2019-02-22T03:36:19.073Z,17.77
2019-02-22T03:37:19.268Z,17.77
2019-02-22T03:38:19.166Z,17.76
2019-02-22T03:39:19.300Z,17.76
2019-02-22T03:40:18.793Z,17.76
2019-02-22T03:41:18.912Z,17.76
2019-02-22T03:42:19.326Z,17.75
2019-02-22T03:43:19.021Z,17.75
2019-02-22T03:44:18.870Z,17.75
2019-02-22T03:45:19.222Z,17.74
2019-02-22T03:46:19.030Z,17.74
2019-02-22T03:47:19.134Z,17.75
2019-02-22T03:48:19.290Z,17.74
2019-02-22T03:49:19.024Z,17.74
2019-02-22T03:50:19.260Z,17.74
2019-02-22T03:51:19.488Z,17.74
2019-02-22T03:52:19.576Z,17.73
2019-02-22T03:53:19.273Z,17.73
2019-02-22T03:54:19.276Z,17.73
2019-02-22T03:55:19.282Z,17.73
2019-02-22T03:56:19.113Z,17.73
2019-02-22T03:57:19.996Z,17.73
2019-02-22T03:58:19.129Z,17.73
2019-02-22T03:59:19.246Z,17.73
2019-02-22T04:00:19.960Z,17.73
2019-02-22T04:01:20.709Z,17.72
2019-02-22T04:02:19.035Z,17.72
2019-02-22T04:03:19.122Z,17.72
2019-02-22T04:04:19.169Z,17.71
2019-02-22T04:05:19.118Z,17.71
2019-02-22T04:06:19.361Z,17.71
2019-02-22T04:07:19.277Z,17.71
2019-02-22T04:08:19.201Z,17.7
2019-02-22T04:09:19.251Z,17.7
2019-02-22T04:10:19.282Z,17.7
2019-02-22T04:11:19.126Z,17.7
2019-02-22T04:12:20.074Z,17.7
2019-02-22T04:13:18.936Z,17.7
2019-02-22T04:14:19.816Z,17.7
2019-02-22T04:15:19.145Z,17.69
2019-02-22T04:16:18.858Z,17.69
2019-02-22T04:17:20.771Z,17.69
2019-02-22T04:18:19.654Z,17.68
2019-02-22T04:19:19.387Z,17.68
2019-02-22T04:20:19.185Z,17.67
2019-02-22T04:21:18.955Z,17.67
2019-02-22T04:22:18.993Z,17.68
2019-02-22T04:23:19.305Z,17.68
2019-02-22T04:24:19.014Z,17.68
2019-02-22T04:25:19.144Z,17.68
2019-02-22T04:26:19.022Z,17.68
2019-02-22T04:27:18.896Z,17.67
2019-02-22T04:28:19.709Z,17.67
2019-02-22T04:29:19.219Z,17.67
2019-02-22T04:30:18.746Z,17.67
2019-02-22T04:31:19.182Z,17.67
2019-02-22T04:32:19.132Z,17.67
2019-02-22T04:33:19.156Z,17.66
2019-02-22T04:34:19.364Z,17.66
2019-02-22T04:35:19.774Z,17.66
2019-02-22T04:36:19.398Z,17.65
2019-02-22T04:37:19.170Z,17.66
2019-02-22T04:38:19.031Z,17.66
2019-02-22T04:39:18.987Z,17.66
2019-02-22T04:40:19.118Z,17.66
2019-02-22T04:41:19.290Z,17.66
2019-02-22T04:42:19.005Z,17.66
2019-02-22T04:43:19.056Z,17.66
2019-02-22T04:44:20.829Z,17.67
2019-02-22T04:45:19.015Z,17.67
2019-02-22T04:46:19.476Z,17.68
2019-02-22T04:47:19.032Z,17.68
2019-02-22T04:48:19.205Z,17.69
2019-02-22T04:49:19.170Z,17.7
2019-02-22T04:50:19.182Z,17.7
2019-02-22T04:51:18.911Z,17.72
2019-02-22T04:52:19.021Z,17.73
2019-02-22T04:53:19.023Z,17.74
2019-02-22T04:54:19.121Z,17.73
2019-02-22T04:55:19.690Z,17.74
2019-02-22T04:56:19.338Z,17.74
2019-02-22T04:57:19.304Z,17.75
2019-02-22T04:58:18.811Z,17.77
2019-02-22T04:59:19.051Z,17.77
2019-02-22T05:00:18.703Z,17.79
2019-02-22T05:01:19.188Z,17.8
2019-02-22T05:02:19.118Z,17.83
2019-02-22T05:03:19.158Z,17.85
2019-02-22T05:04:19.104Z,17.86
2019-02-22T05:05:18.769Z,17.87
2019-02-22T05:06:18.733Z,17.89
2019-02-22T05:07:19.010Z,17.92
2019-02-22T05:08:18.946Z,17.93
2019-02-22T05:09:18.766Z,17.95
2019-02-22T05:10:18.938Z,17.97
2019-02-22T05:11:19.171Z,17.98
2019-02-22T05:12:18.773Z,17.99
2019-02-22T05:13:19.308Z,18
2019-02-22T05:14:18.933Z,18.02
2019-02-22T05:15:18.920Z,18.04
2019-02-22T05:16:19.148Z,18.06
2019-02-22T05:17:19.072Z,18.07
2019-02-22T05:18:19.994Z,18.09
2019-02-22T05:19:18.965Z,18.1
2019-02-22T05:20:19.439Z,18.12
2019-02-22T05:21:19.238Z,18.14
2019-02-22T05:22:18.810Z,18.15
2019-02-22T05:23:19.321Z,18.17
2019-02-22T05:24:18.912Z,18.18
2019-02-22T05:25:19.403Z,18.2
2019-02-22T05:26:18.968Z,18.21
2019-02-22T05:27:19.376Z,18.22
2019-02-22T05:28:20.994Z,18.23
2019-02-22T05:29:20.695Z,18.24
2019-02-22T05:30:19.510Z,18.26
2019-02-22T05:31:18.842Z,18.28
2019-02-22T05:32:19.164Z,18.29
2019-02-22T05:33:19.715Z,18.29
2019-02-22T05:34:18.708Z,18.31
2019-02-22T05:35:19.274Z,18.32
2019-02-22T05:36:19.326Z,18.33
2019-02-22T05:37:18.852Z,18.35
2019-02-22T05:38:19.000Z,18.35
2019-02-22T05:39:19.940Z,18.37
2019-02-22T05:40:19.309Z,18.38
2019-02-22T05:41:19.199Z,18.39
2019-02-22T05:42:23.618Z,18.41
2019-02-22T05:43:19.164Z,18.42
2019-02-22T05:44:19.119Z,18.43
2019-02-22T05:45:19.014Z,18.44
2019-02-22T05:46:19.485Z,18.44
2019-02-22T05:47:19.316Z,18.47
2019-02-22T05:48:18.880Z,18.48
2019-02-22T05:49:22.856Z,18.48
2019-02-22T05:50:19.165Z,18.5
2019-02-22T05:51:19.139Z,18.51
2019-02-22T05:52:20.680Z,18.53
2019-02-22T05:53:19.047Z,18.54
2019-02-22T05:54:18.791Z,18.55
2019-02-22T05:55:18.788Z,18.55
2019-02-22T05:56:20.711Z,18.57
2019-02-22T05:57:18.879Z,18.58
2019-02-22T05:58:19.327Z,18.59
2019-02-22T05:59:18.890Z,18.6
2019-02-22T06:00:19.291Z,18.61
2019-02-22T06:01:20.791Z,18.61
2019-02-22T06:02:19.799Z,18.63
2019-02-22T06:03:19.102Z,18.64
2019-02-22T06:04:18.840Z,18.66
2019-02-22T06:05:20.588Z,18.66
2019-02-22T06:06:19.110Z,18.67
2019-02-22T06:07:19.322Z,18.69
2019-02-22T06:08:18.955Z,18.72
2019-02-22T06:09:18.979Z,18.71
2019-02-22T06:10:19.229Z,18.71
2019-02-22T06:11:20.776Z,18.73
2019-02-22T06:12:19.185Z,18.75
2019-02-22T06:13:18.935Z,18.76
2019-02-22T06:14:19.255Z,18.77
2019-02-22T06:15:19.147Z,18.77
2019-02-22T06:16:18.722Z,18.78
2019-02-22T06:17:19.117Z,18.78
2019-02-22T06:18:19.381Z,18.79
2019-02-22T06:19:18.947Z,18.8
2019-02-22T06:20:18.956Z,18.81
2019-02-22T06:21:19.247Z,18.82
2019-02-22T06:22:30.255Z,18.82
2019-02-22T06:23:19.990Z,18.83
2019-02-22T06:24:19.761Z,18.83
2019-02-22T06:25:18.854Z,18.83
2019-02-22T06:26:18.935Z,18.84
2019-02-22T06:27:20.046Z,18.87
2019-02-22T06:28:18.712Z,18.87
2019-02-22T06:29:19.156Z,18.87
2019-02-22T06:30:18.877Z,18.87
2019-02-22T06:31:18.962Z,18.89
2019-02-22T06:32:19.864Z,18.9
2019-02-22T06:33:18.972Z,18.9
2019-02-22T06:34:18.855Z,18.9
2019-02-22T06:35:19.099Z,18.91
2019-02-22T06:36:19.012Z,18.92
2019-02-22T06:37:19.133Z,18.92
2019-02-22T06:38:20.056Z,18.92
2019-02-22T06:39:20.629Z,18.93
2019-02-22T06:40:18.778Z,18.93
2019-02-22T06:41:18.919Z,18.94
2019-02-22T06:42:18.637Z,18.95
2019-02-22T06:43:19.028Z,18.95
2019-02-22T06:44:18.759Z,18.96
2019-02-22T06:45:20.012Z,18.96
2019-02-22T06:46:18.853Z,18.96
2019-02-22T06:47:23.128Z,18.97
2019-02-22T06:48:18.958Z,18.97
2019-02-22T06:49:18.868Z,18.97
2019-02-22T06:50:18.992Z,18.98
2019-02-22T06:51:18.851Z,18.98
2019-02-22T06:52:19.532Z,18.99
2019-02-22T06:53:19.670Z,18.99
2019-02-22T06:54:19.331Z,19
2019-02-22T06:55:18.963Z,19.01
2019-02-22T06:56:18.794Z,19.03
2019-02-22T06:57:19.194Z,19.02
2019-02-22T06:58:19.580Z,19.02
2019-02-22T06:59:19.200Z,19.02
2019-02-22T07:00:19.084Z,19.02
2019-02-22T07:01:18.955Z,19.02
2019-02-22T07:02:19.311Z,19.04
2019-02-22T07:03:19.182Z,19.03
2019-02-22T07:04:19.882Z,19.03
2019-02-22T07:05:19.746Z,19.04
2019-02-22T07:06:20.190Z,19.05
2019-02-22T07:07:20.563Z,19.05
2019-02-22T07:08:19.557Z,19.06
2019-02-22T07:09:19.055Z,19.06
2019-02-22T07:10:18.788Z,19.06
2019-02-22T07:11:18.919Z,19.07
2019-02-22T07:12:18.953Z,19.08
2019-02-22T07:13:19.015Z,19.08
2019-02-22T07:14:19.070Z,19.09
2019-02-22T07:15:19.170Z,19.09
2019-02-22T07:16:19.109Z,19.09
2019-02-22T07:17:19.168Z,19.09
2019-02-22T07:18:19.090Z,19.1
2019-02-22T07:19:18.850Z,19.09
2019-02-22T07:20:19.025Z,19.1
2019-02-22T07:21:19.480Z,19.12
2019-02-22T07:22:18.659Z,19.12
2019-02-22T07:23:19.183Z,19.12
2019-02-22T07:24:19.528Z,19.13
2019-02-22T07:25:19.159Z,19.13
2019-02-22T07:26:19.159Z,19.14
2019-02-22T07:27:18.857Z,19.13
2019-02-22T07:28:20.605Z,19.13
2019-02-22T07:29:19.211Z,19.15
2019-02-22T07:30:20.724Z,19.14
2019-02-22T07:31:20.337Z,19.15
2019-02-22T07:32:19.253Z,19.15
2019-02-22T07:33:19.710Z,19.15
2019-02-22T07:34:18.754Z,19.15
2019-02-22T07:35:19.016Z,19.16
2019-02-22T07:36:19.048Z,19.17
2019-02-22T07:37:19.037Z,19.16
2019-02-22T07:38:19.407Z,19.17
2019-02-22T07:39:28.544Z,19.17
2019-02-22T07:40:20.328Z,19.17
2019-02-22T07:41:18.962Z,19.17
2019-02-22T07:42:18.920Z,19.19
2019-02-22T07:43:18.888Z,19.19
2019-02-22T07:44:18.842Z,19.19
2019-02-22T07:45:19.377Z,19.2
2019-02-22T07:46:18.795Z,19.19
2019-02-22T07:47:18.778Z,19.2
2019-02-22T07:48:18.913Z,19.2
2019-02-22T07:49:18.981Z,19.2
2019-02-22T07:50:19.019Z,19.21
2019-02-22T07:51:18.788Z,19.23
2019-02-22T07:52:19.496Z,19.23
2019-02-22T07:53:20.560Z,19.25
2019-02-22T07:54:18.852Z,19.25
2019-02-22T07:55:19.076Z,19.26
2019-02-22T07:56:19.491Z,19.27
2019-02-22T07:57:18.730Z,19.27
2019-02-22T07:58:18.518Z,19.31
2019-02-22T07:59:18.607Z,19.29
2019-02-22T08:00:18.854Z,19.28
2019-02-22T08:01:18.965Z,19.27
2019-02-22T08:02:19.392Z,19.28
2019-02-22T08:03:20.925Z,19.28
2019-02-22T08:04:18.939Z,19.27
2019-02-22T08:05:18.833Z,19.28
2019-02-22T08:06:19.139Z,19.27
2019-02-22T08:07:20.614Z,19.28
2019-02-22T08:08:19.125Z,19.28
2019-02-22T08:09:18.909Z,19.28
2019-02-22T08:10:19.062Z,19.29
2019-02-22T08:11:18.905Z,19.29
2019-02-22T08:12:19.818Z,19.3
2019-02-22T08:13:20.795Z,19.3
2019-02-22T08:14:19.106Z,19.3
2019-02-22T08:15:19.490Z,19.3
2019-02-22T08:16:18.695Z,19.31
2019-02-22T08:17:20.147Z,19.32
2019-02-22T08:18:19.134Z,19.32
2019-02-22T08:19:18.924Z,19.32
2019-02-22T08:20:19.237Z,19.32
2019-02-22T08:21:19.244Z,19.33
2019-02-22T08:22:21.019Z,19.32
2019-02-22T08:23:18.950Z,19.33
2019-02-22T08:24:18.807Z,19.33
2019-02-22T08:25:18.804Z,19.33
2019-02-22T08:26:18.801Z,19.33
2019-02-22T08:27:19.146Z,19.33
2019-02-22T08:28:19.222Z,19.33
2019-02-22T08:29:19.514Z,19.33
2019-02-22T08:30:18.802Z,19.34
2019-02-22T08:31:18.906Z,19.35
2019-02-22T08:32:18.998Z,19.35
2019-02-22T08:33:19.221Z,19.35
2019-02-22T08:34:20.464Z,19.34
2019-02-22T08:35:18.825Z,19.34
2019-02-22T08:36:18.942Z,19.35
2019-02-22T08:37:18.747Z,19.34
2019-02-22T08:38:19.143Z,19.35
2019-02-22T08:39:19.065Z,19.35
2019-02-22T08:40:19.002Z,19.35
2019-02-22T08:41:18.829Z,19.35
2019-02-22T08:42:18.883Z,19.36
2019-02-22T08:43:18.999Z,19.36
2019-02-22T08:44:18.901Z,19.36
2019-02-22T08:45:19.726Z,19.36
2019-02-22T08:46:19.022Z,19.36
2019-02-22T08:47:18.964Z,19.37
2019-02-22T08:48:19.621Z,19.37
2019-02-22T08:49:19.350Z,19.36
2019-02-22T08:50:18.918Z,19.37
2019-02-22T08:51:19.171Z,19.37
2019-02-22T08:52:19.140Z,19.37
2019-02-22T08:53:19.276Z,19.37
2019-02-22T08:54:19.479Z,19.37
2019-02-22T08:55:18.883Z,19.38
2019-02-22T08:56:19.985Z,19.39
2019-02-22T08:57:18.993Z,19.39
2019-02-22T08:58:18.744Z,19.39
2019-02-22T08:59:19.094Z,19.39
2019-02-22T09:00:18.717Z,19.39
2019-02-22T09:01:19.009Z,19.39
2019-02-22T09:02:19.022Z,19.39
2019-02-22T09:03:18.906Z,19.39
2019-02-22T09:04:19.484Z,19.39
2019-02-22T09:05:18.888Z,19.4
2019-02-22T09:06:18.667Z,19.4
2019-02-22T09:07:19.492Z,19.4
2019-02-22T09:08:18.890Z,19.41
2019-02-22T09:09:18.802Z,19.41
2019-02-22T09:10:19.222Z,19.41
2019-02-22T09:11:18.973Z,19.4
2019-02-22T09:12:19.058Z,19.4
2019-02-22T09:13:19.127Z,19.4
2019-02-22T09:14:18.897Z,19.4
2019-02-22T09:15:18.906Z,19.4
2019-02-22T09:16:19.035Z,19.4
2019-02-22T09:17:19.239Z,19.4
2019-02-22T09:18:19.461Z,19.4
2019-02-22T09:19:19.765Z,19.4
2019-02-22T09:20:18.829Z,19.39
2019-02-22T09:21:19.481Z,19.41
2019-02-22T09:22:23.571Z,19.4
2019-02-22T09:23:19.284Z,19.4
2019-02-22T09:24:19.521Z,19.4
2019-02-22T09:25:18.798Z,19.41
2019-02-22T09:26:18.979Z,19.4
2019-02-22T09:27:19.101Z,19.39
2019-02-22T09:28:18.756Z,19.39
2019-02-22T09:29:19.218Z,19.39
2019-02-22T09:30:19.253Z,19.39
2019-02-22T09:31:18.865Z,19.39
2019-02-22T09:32:19.085Z,19.39
2019-02-22T09:33:19.145Z,19.39
2019-02-22T09:34:19.109Z,19.39
2019-02-22T09:35:19.104Z,19.39
2019-02-22T09:36:19.199Z,19.39
2019-02-22T09:37:20.543Z,19.33
2019-02-22T09:38:18.779Z,19.27
2019-02-22T09:39:18.817Z,19.23
2019-02-22T09:40:19.199Z,19.17
2019-02-22T09:41:20.202Z,19.1
2019-02-22T09:42:18.918Z,19.08
2019-02-22T09:43:18.916Z,19.09
2019-02-22T09:44:18.975Z,19.09
2019-02-22T09:45:18.831Z,19.07
2019-02-22T09:46:18.719Z,18.99
2019-02-22T09:47:18.905Z,18.95
2019-02-22T09:48:18.863Z,18.94
2019-02-22T09:49:19.089Z,18.92
2019-02-22T09:50:19.415Z,18.86
2019-02-22T09:51:19.050Z,18.87
2019-02-22T09:52:18.601Z,18.89
2019-02-22T09:53:20.658Z,18.84
2019-02-22T09:54:18.666Z,18.79
2019-02-22T09:55:18.968Z,18.83
2019-02-22T09:56:19.823Z,18.84
2019-02-22T09:57:18.913Z,18.85
2019-02-22T09:58:20.594Z,18.85
2019-02-22T09:59:18.934Z,18.88
2019-02-22T10:00:18.826Z,18.85
2019-02-22T10:01:19.489Z,18.86
2019-02-22T10:02:18.873Z,18.88
2019-02-22T10:03:19.588Z,18.87
2019-02-22T10:04:19.127Z,18.85
2019-02-22T10:05:19.106Z,18.83
2019-02-22T10:06:18.683Z,18.81
2019-02-22T10:07:19.196Z,18.83
2019-02-22T10:08:19.171Z,18.83
2019-02-22T10:09:18.808Z,18.84
2019-02-22T10:10:18.829Z,18.84
2019-02-22T10:11:19.122Z,18.82
2019-02-22T10:12:19.392Z,18.81
2019-02-22T10:13:19.364Z,18.81
2019-02-22T10:14:20.713Z,18.8
2019-02-22T10:15:19.096Z,18.81
2019-02-22T10:16:19.149Z,18.79
2019-02-22T10:17:18.764Z,18.79
2019-02-22T10:18:18.787Z,18.8
2019-02-22T10:19:18.881Z,18.79
2019-02-22T10:20:18.910Z,18.77
2019-02-22T10:21:19.096Z,18.78
2019-02-22T10:22:19.130Z,18.78
2019-02-22T10:23:19.009Z,18.78
2019-02-22T10:24:19.005Z,18.77
2019-02-22T10:25:20.345Z,18.76
2019-02-22T10:26:21.792Z,18.75
2019-02-22T10:27:18.821Z,18.72
2019-02-22T10:28:18.973Z,18.75
2019-02-22T10:29:19.143Z,18.74
2019-02-22T10:30:18.697Z,18.75
2019-02-22T10:31:18.699Z,18.75
2019-02-22T10:32:19.858Z,18.72
2019-02-22T10:33:18.856Z,18.72
2019-02-22T10:34:18.719Z,18.73
2019-02-22T10:35:18.751Z,18.73
2019-02-22T10:36:18.929Z,18.73
2019-02-22T10:37:18.701Z,18.72
2019-02-22T10:38:18.860Z,18.72
2019-02-22T10:39:18.773Z,18.72
2019-02-22T10:40:18.783Z,18.74
2019-02-22T10:41:19.197Z,18.73
2019-02-22T10:42:19.037Z,18.73
2019-02-22T10:43:19.065Z,18.74
2019-02-22T10:44:18.810Z,18.74
2019-02-22T10:45:19.003Z,18.73
2019-02-22T10:46:18.980Z,18.73
2019-02-22T10:47:20.538Z,18.7
2019-02-22T10:48:19.758Z,18.75
2019-02-22T10:49:18.923Z,18.8
2019-02-22T10:50:20.547Z,18.84
2019-02-22T10:51:18.779Z,18.86
2019-02-22T10:52:19.225Z,18.9
2019-02-22T10:53:18.854Z,18.91
2019-02-22T10:54:18.823Z,18.94
2019-02-22T10:55:19.352Z,18.96
2019-02-22T10:56:18.653Z,18.97
2019-02-22T10:57:19.057Z,18.99
2019-02-22T10:58:18.948Z,19.01
2019-02-22T10:59:18.833Z,19.02
2019-02-22T11:00:18.767Z,19.03
2019-02-22T11:01:19.102Z,19.04
2019-02-22T11:02:18.721Z,19.06
2019-02-22T11:03:18.979Z,19.06
2019-02-22T11:04:19.228Z,19.06
2019-02-22T11:05:19.716Z,19.08
2019-02-22T11:06:18.982Z,19.08
2019-02-22T11:07:18.797Z,19.08
2019-02-22T11:08:19.009Z,19.11
2019-02-22T11:09:19.833Z,19.12
2019-02-22T11:10:19.710Z,19.13
2019-02-22T11:11:18.677Z,19.15
2019-02-22T11:12:19.466Z,19.15
2019-02-22T11:13:21.738Z,19.17
2019-02-22T11:14:30.142Z,19.17
2019-02-22T11:15:18.893Z,19.19
2019-02-22T11:16:19.186Z,19.21
2019-02-22T11:17:18.993Z,19.22
2019-02-22T11:18:19.071Z,19.23
2019-02-22T11:19:18.851Z,19.25
2019-02-22T11:20:20.603Z,19.27
2019-02-22T11:21:19.194Z,19.25
2019-02-22T11:22:18.794Z,19.24
2019-02-22T11:23:19.154Z,19.22
2019-02-22T11:24:20.615Z,19.27
2019-02-22T11:25:18.510Z,19.28
2019-02-22T11:26:19.088Z,19.29
2019-02-22T11:27:19.445Z,19.29
2019-02-22T11:28:18.763Z,19.3
2019-02-22T11:29:20.579Z,19.33
2019-02-22T11:30:19.652Z,19.34
2019-02-22T11:31:18.874Z,19.35
2019-02-22T11:32:19.841Z,19.36
2019-02-22T11:33:19.677Z,19.36
2019-02-22T11:34:18.908Z,19.39
2019-02-22T11:35:18.733Z,19.4
2019-02-22T11:36:19.239Z,19.42
2019-02-22T11:37:18.808Z,19.44
2019-02-22T11:38:18.934Z,19.45
2019-02-22T11:39:18.866Z,19.45
2019-02-22T11:40:19.135Z,19.47
2019-02-22T11:41:18.751Z,19.48
2019-02-22T11:42:20.488Z,19.48
2019-02-22T11:43:18.739Z,19.5
2019-02-22T11:44:18.811Z,19.51
2019-02-22T11:45:18.822Z,19.52
2019-02-22T11:46:19.092Z,19.53
2019-02-22T11:47:18.774Z,19.57
2019-02-22T11:48:18.894Z,19.57
2019-02-22T11:49:18.593Z,19.58
2019-02-22T11:50:18.435Z,19.57
2019-02-22T11:51:18.965Z,19.6
2019-02-22T11:52:18.814Z,19.59
2019-02-22T11:53:18.643Z,19.6
2019-02-22T11:54:18.953Z,19.61
2019-02-22T11:55:20.637Z,19.61
2019-02-22T11:56:18.917Z,19.61
2019-02-22T11:57:20.631Z,19.63
2019-02-22T11:58:19.145Z,19.63
2019-02-22T11:59:18.753Z,19.63
2019-02-22T12:00:18.723Z,19.64
2019-02-22T12:01:19.091Z,19.64
2019-02-22T12:02:18.904Z,19.65
2019-02-22T12:03:25.454Z,19.65
2019-02-22T12:04:19.261Z,19.67
2019-02-22T12:05:18.479Z,19.65
2019-02-22T12:06:18.914Z,19.65
2019-02-22T12:07:19.141Z,19.64
2019-02-22T12:08:18.946Z,19.63
2019-02-22T12:09:18.861Z,19.63
2019-02-22T12:10:18.887Z,19.63
2019-02-22T12:11:19.198Z,19.62
2019-02-22T12:12:18.945Z,19.63
2019-02-22T12:13:19.188Z,19.62
2019-02-22T12:14:18.701Z,19.59
2019-02-22T12:15:19.098Z,19.61
2019-02-22T12:16:19.106Z,19.63
2019-02-22T12:17:19.606Z,19.62
2019-02-22T12:18:19.115Z,19.61
2019-02-22T12:19:20.512Z,19.6
2019-02-22T12:20:18.643Z,19.61
2019-02-22T12:21:18.924Z,19.6
2019-02-22T12:22:18.821Z,19.59
2019-02-22T12:23:18.948Z,19.59
2019-02-22T12:24:19.046Z,19.59
2019-02-22T12:25:20.092Z,19.59
2019-02-22T12:26:19.712Z,19.59
2019-02-22T12:27:19.504Z,19.57
2019-02-22T12:28:18.563Z,19.58
2019-02-22T12:29:18.588Z,19.57
2019-02-22T12:30:18.729Z,19.57
2019-02-22T12:31:19.251Z,19.57
2019-02-22T12:32:18.801Z,19.56
2019-02-22T12:33:18.896Z,19.56
2019-02-22T12:34:19.697Z,19.55
2019-02-22T12:35:18.715Z,19.55
2019-02-22T12:36:18.723Z,19.54
2019-02-22T12:37:19.876Z,19.54
2019-02-22T12:38:18.714Z,19.55
2019-02-22T12:39:19.444Z,19.55
2019-02-22T12:40:19.059Z,19.54
2019-02-22T12:41:18.723Z,19.56
2019-02-22T12:42:18.798Z,19.54
2019-02-22T12:43:18.877Z,19.53
2019-02-22T12:44:18.934Z,19.55
2019-02-22T12:45:18.727Z,19.53
2019-02-22T12:46:18.777Z,19.53
2019-02-22T12:47:19.089Z,19.53
2019-02-22T12:48:19.348Z,19.52
2019-02-22T12:49:18.885Z,19.52
2019-02-22T12:50:18.679Z,19.51
2019-02-22T12:51:19.077Z,19.52
2019-02-22T12:52:18.744Z,19.51
2019-02-22T12:53:18.617Z,19.51
2019-02-22T12:54:18.923Z,19.51
2019-02-22T12:55:18.586Z,19.5
2019-02-22T12:57:19.185Z,19.5
2019-02-22T12:58:19.204Z,19.5